createdAt,value
2018-02-09T00:00:02.199Z,40.80
2018-02-09T00:01:07.907Z,40.45
2018-02-09T00:02:14.443Z,39.33
2018-02-09T00:03:20.937Z,38.50
2018-02-09T00:04:26.620Z,39.30
2018-02-09T00:05:32.359Z,38.22
2018-02-09T00:06:38.087Z,38.40
2018-02-09T00:07:43.798Z,37.35
2018-02-09T00:08:49.499Z,37.00
2018-02-09T00:09:55.985Z,34.58
2018-02-09T00:11:01.728Z,36.53
2018-02-09T00:12:07.439Z,38.47
2018-02-09T00:13:13.919Z,39.10
2018-02-09T00:14:20.392Z,42.15
2018-02-09T00:15:26.113Z,34.88
2018-02-09T00:16:32.607Z,39.47
2018-02-09T00:17:38.328Z,37.83
2018-02-09T00:18:45.086Z,38.13
2018-02-09T00:19:50.803Z,38.15
2018-02-09T00:20:57.313Z,40.40
2018-02-09T00:22:03.053Z,36.88
2018-02-09T00:23:08.780Z,40.15
2018-02-09T00:24:14.487Z,38.17
2018-02-09T00:25:20.979Z,36.20
2018-02-09T00:26:26.695Z,38.05
2018-02-09T00:27:33.227Z,36.90
2018-02-09T00:28:38.949Z,40.50
2018-02-09T00:29:44.664Z,41.67
2018-02-09T00:30:50.366Z,38.63
2018-02-09T00:31:56.906Z,41.35
2018-02-09T00:33:02.808Z,39.92
2018-02-09T00:34:08.534Z,38.50
2018-02-09T00:35:14.239Z,39.28
2018-02-09T00:36:19.963Z,39.55
2018-02-09T00:37:25.906Z,38.38
2018-02-09T00:38:31.675Z,38.58
2018-02-09T00:39:38.174Z,36.63
2018-02-09T00:40:43.879Z,36.97
2018-02-09T00:41:50.379Z,39.75
2018-02-09T00:42:56.082Z,38.53
2018-02-09T00:44:01.824Z,38.38
2018-02-09T00:45:08.368Z,37.85
2018-02-09T00:46:14.874Z,38.92
2018-02-09T00:47:20.592Z,41.65
2018-02-09T00:48:27.068Z,40.35
2018-02-09T00:49:32.801Z,39.35
2018-02-09T00:50:38.515Z,39.03
2018-02-09T00:51:44.221Z,41.42
2018-02-09T00:52:49.926Z,40.03
2018-02-09T00:53:55.636Z,42.30
2018-02-09T00:55:02.171Z,41.53
2018-02-09T00:56:07.890Z,41.80
2018-02-09T00:57:13.633Z,40.35
2018-02-09T00:58:19.339Z,38.30
2018-02-09T00:59:25.083Z,37.53
2018-02-09T01:00:31.650Z,38.65
2018-02-09T01:01:38.108Z,42.22
2018-02-09T01:02:43.828Z,41.53
2018-02-09T01:03:50.311Z,40.33
2018-02-09T01:04:56.016Z,40.80
2018-02-09T01:06:02.544Z,37.50
2018-02-09T01:07:08.286Z,40.35
2018-02-09T01:08:14.391Z,39.53
2018-02-09T01:09:20.102Z,39.53
2018-02-09T01:10:25.828Z,43.22
2018-02-09T01:11:31.577Z,38.97
2018-02-09T01:12:37.279Z,43.58
2018-02-09T01:13:43.005Z,38.38
2018-02-09T01:14:48.717Z,41.92
2018-02-09T01:15:55.185Z,39.70
2018-02-09T01:17:00.927Z,40.40
2018-02-09T01:18:06.640Z,41.53
2018-02-09T01:19:13.288Z,41.70
2018-02-09T01:20:18.989Z,39.28
2018-02-09T01:21:24.753Z,41.75
2018-02-09T01:22:30.517Z,41.58
2018-02-09T01:23:36.400Z,43.80
2018-02-09T01:24:42.886Z,40.78
2018-02-09T01:25:48.605Z,41.33
2018-02-09T01:26:54.314Z,41.35
2018-02-09T01:28:00.041Z,40.22
2018-02-09T01:29:05.748Z,43.15
2018-02-09T01:30:11.458Z,43.85
2018-02-09T01:31:17.933Z,43.28
2018-02-09T01:32:23.650Z,41.55
2018-02-09T01:33:30.147Z,42.47
2018-02-09T01:34:35.863Z,41.35
2018-02-09T01:35:41.571Z,41.28
2018-02-09T01:36:47.288Z,40.33
2018-02-09T01:37:53.001Z,38.42
2018-02-09T01:38:58.736Z,41.50
2018-02-09T01:40:04.486Z,43.00
2018-02-09T01:41:10.211Z,42.92
2018-02-09T01:42:15.923Z,44.22
2018-02-09T01:43:21.720Z,43.60
2018-02-09T01:44:27.492Z,42.25
2018-02-09T01:45:33.199Z,42.25
2018-02-09T01:46:38.923Z,42.67
2018-02-09T01:47:44.631Z,43.70
2018-02-09T01:48:51.126Z,39.80
2018-02-09T01:50:13.742Z,43.13
2018-02-09T01:51:20.219Z,40.45
2018-02-09T01:52:25.936Z,42.80
2018-02-09T01:53:32.421Z,41.13
2018-02-09T01:54:38.156Z,40.50
2018-02-09T01:55:43.881Z,39.50
2018-02-09T01:56:49.711Z,40.75
2018-02-09T01:57:55.415Z,41.35
2018-02-09T01:59:01.137Z,42.35
2018-02-09T02:00:06.523Z,41.35
2018-02-09T02:01:13.024Z,39.75
2018-02-09T02:02:18.745Z,45.20
2018-02-09T02:03:24.447Z,39.90
2018-02-09T02:04:30.167Z,41.78
2018-02-09T02:05:35.879Z,42.72
2018-02-09T02:06:41.616Z,42.00
2018-02-09T02:07:47.105Z,41.33
2018-02-09T02:08:53.011Z,43.35
2018-02-09T02:09:58.728Z,42.00
2018-02-09T02:11:05.016Z,40.33
2018-02-09T02:12:10.752Z,43.20
2018-02-09T02:13:16.460Z,43.03
2018-02-09T02:14:22.181Z,42.58
2018-02-09T02:15:29.513Z,41.90
2018-02-09T02:16:35.234Z,43.25
2018-02-09T02:17:41.778Z,43.83
2018-02-09T02:18:47.672Z,37.90
2018-02-09T02:19:53.379Z,43.08
2018-02-09T02:20:59.092Z,42.75
2018-02-09T02:22:05.579Z,42.30
2018-02-09T02:23:11.330Z,39.42
2018-02-09T02:24:17.031Z,41.65
2018-02-09T02:25:23.508Z,40.10
2018-02-09T02:26:29.218Z,42.00
2018-02-09T02:27:35.711Z,44.45
2018-02-09T02:28:41.458Z,41.35
2018-02-09T02:29:47.168Z,41.97
2018-02-09T02:30:53.642Z,42.90
2018-02-09T02:31:59.370Z,44.10
2018-02-09T02:33:05.511Z,45.75
2018-02-09T02:34:12.012Z,42.20
2018-02-09T02:35:17.707Z,43.20
2018-02-09T02:36:24.184Z,42.10
2018-02-09T02:37:30.670Z,45.70
2018-02-09T02:38:36.378Z,42.55
2018-02-09T02:39:42.875Z,43.25
2018-02-09T02:40:48.592Z,40.95
2018-02-09T02:41:55.077Z,43.10
2018-02-09T02:43:00.788Z,45.00
2018-02-09T02:44:06.504Z,41.00
2018-02-09T02:45:12.251Z,42.60
2018-02-09T02:46:18.738Z,44.70
2018-02-09T02:47:24.451Z,42.90
2018-02-09T02:48:30.928Z,41.40
2018-02-09T02:49:36.465Z,43.97
2018-02-09T02:50:42.212Z,43.65
2018-02-09T02:51:47.919Z,41.40
2018-02-09T02:52:54.392Z,43.25
2018-02-09T02:54:00.872Z,43.35
2018-02-09T02:55:06.594Z,45.78
2018-02-09T02:56:13.099Z,42.62
2018-02-09T02:57:18.815Z,46.88
2018-02-09T02:58:24.523Z,42.88
2018-02-09T02:59:31.011Z,44.28
2018-02-09T03:00:36.749Z,44.80
2018-02-09T03:01:42.495Z,41.17
2018-02-09T03:02:48.212Z,38.95
2018-02-09T03:03:54.701Z,43.92
2018-02-09T03:05:00.449Z,44.67
2018-02-09T03:06:06.006Z,44.28
2018-02-09T03:07:11.753Z,44.88
2018-02-09T03:08:17.468Z,43.85
2018-02-09T03:09:23.192Z,43.90
2018-02-09T03:10:28.717Z,44.70
2018-02-09T03:11:34.431Z,45.17
2018-02-09T03:12:40.939Z,45.08
2018-02-09T03:13:46.648Z,47.70
2018-02-09T03:14:53.131Z,44.63
2018-02-09T03:15:58.690Z,44.92
2018-02-09T03:17:04.399Z,45.85
2018-02-09T03:18:10.130Z,43.22
2018-02-09T03:19:15.855Z,44.58
2018-02-09T03:20:22.662Z,42.67
2018-02-09T03:21:28.366Z,45.30
2018-02-09T03:22:34.844Z,45.17
2018-02-09T03:23:40.579Z,46.55
2018-02-09T03:24:46.300Z,46.83
2018-02-09T03:25:52.800Z,44.85
2018-02-09T03:26:58.508Z,44.58
2018-02-09T03:28:04.981Z,39.60
2018-02-09T03:29:10.728Z,44.80
2018-02-09T03:30:16.453Z,44.97
2018-02-09T03:31:22.180Z,46.28
2018-02-09T03:32:28.704Z,43.08
2018-02-09T03:33:34.427Z,45.00
2018-02-09T03:34:40.170Z,46.40
2018-02-09T03:35:45.891Z,46.15
2018-02-09T03:36:51.615Z,49.95
2018-02-09T03:37:57.352Z,46.78
2018-02-09T03:39:03.591Z,46.35
2018-02-09T03:40:10.117Z,45.70
2018-02-09T03:41:15.835Z,46.05
2018-02-09T03:42:21.560Z,45.83
2018-02-09T03:43:27.271Z,44.45
2018-02-09T03:44:33.769Z,42.97
2018-02-09T03:45:39.512Z,48.13
2018-02-09T03:46:45.249Z,46.22
2018-02-09T03:47:50.959Z,48.38
2018-02-09T03:48:57.460Z,46.25
2018-02-09T03:50:03.192Z,47.70
2018-02-09T03:51:08.927Z,39.50
2018-02-09T03:52:14.644Z,49.05
2018-02-09T03:53:21.141Z,45.38
2018-02-09T03:54:26.995Z,46.80
2018-02-09T03:55:32.712Z,46.53
2018-02-09T03:56:38.461Z,46.60
2018-02-09T03:57:44.176Z,51.50
2018-02-09T03:58:50.660Z,48.25
2018-02-09T03:59:56.376Z,46.55
2018-02-09T04:01:02.863Z,48.40
2018-02-09T04:02:08.605Z,51.28
2018-02-09T04:03:14.335Z,47.75
2018-02-09T04:04:20.064Z,47.88
2018-02-09T04:05:25.795Z,50.10
2018-02-09T04:06:32.042Z,47.95
2018-02-09T04:07:38.548Z,48.83
2018-02-09T04:08:44.316Z,47.72
2018-02-09T04:09:50.024Z,46.65
2018-02-09T04:10:55.753Z,50.10
2018-02-09T04:12:01.467Z,45.90
2018-02-09T04:13:07.971Z,48.08
2018-02-09T04:14:14.012Z,45.75
2018-02-09T04:15:19.794Z,48.30
2018-02-09T04:16:25.506Z,48.50
2018-02-09T04:17:31.229Z,49.58
2018-02-09T04:18:36.976Z,47.67
2018-02-09T04:19:42.704Z,48.83
2018-02-09T04:20:48.235Z,47.85
2018-02-09T04:21:53.956Z,46.42
2018-02-09T04:23:00.451Z,45.28
2018-02-09T04:24:06.207Z,50.47
2018-02-09T04:25:11.924Z,47.80
2018-02-09T04:26:17.649Z,46.70
2018-02-09T04:27:24.144Z,48.78
2018-02-09T04:28:29.858Z,48.28
2018-02-09T04:29:35.859Z,48.63
2018-02-09T04:30:42.656Z,46.40
2018-02-09T04:31:49.442Z,50.30
2018-02-09T04:32:55.729Z,47.92
2018-02-09T04:34:01.807Z,47.35
2018-02-09T04:35:08.128Z,51.20
2018-02-09T04:36:14.696Z,47.90
2018-02-09T04:37:20.729Z,51.53
2018-02-09T04:38:28.117Z,48.92
2018-02-09T04:39:35.856Z,48.03
2018-02-09T04:40:42.716Z,48.20
2018-02-09T04:41:48.601Z,44.35
2018-02-09T04:42:55.261Z,48.30
2018-02-09T04:44:01.116Z,44.80
2018-02-09T04:45:07.253Z,48.97
2018-02-09T04:46:14.214Z,49.08
2018-02-09T04:47:20.082Z,48.85
2018-02-09T04:48:26.049Z,47.97
2018-02-09T04:49:32.741Z,49.08
2018-02-09T04:50:39.256Z,51.20
2018-02-09T04:51:45.239Z,50.72
2018-02-09T04:52:51.981Z,52.50
2018-02-09T04:53:58.779Z,48.63
2018-02-09T04:55:04.950Z,48.65
2018-02-09T04:56:10.975Z,49.33
2018-02-09T04:57:16.858Z,49.25
2018-02-09T04:58:22.821Z,49.60
2018-02-09T04:59:28.843Z,49.08
2018-02-09T05:00:35.717Z,53.08
2018-02-09T05:01:42.428Z,49.90
2018-02-09T05:02:49.117Z,50.17
2018-02-09T05:03:55.348Z,51.60
2018-02-09T05:05:02.175Z,51.97
2018-02-09T05:06:08.691Z,53.50
2018-02-09T05:07:14.752Z,50.15
2018-02-09T05:08:20.669Z,47.42
2018-02-09T05:09:27.421Z,52.13
2018-02-09T05:10:34.414Z,53.72
2018-02-09T05:11:41.726Z,53.03
2018-02-09T05:12:47.831Z,49.15
2018-02-09T05:13:54.557Z,49.55
2018-02-09T05:15:01.396Z,50.30
2018-02-09T05:16:07.555Z,51.67
2018-02-09T05:17:14.462Z,53.13
2018-02-09T05:18:20.180Z,55.42
2018-02-09T05:19:26.184Z,53.20
2018-02-09T05:20:32.169Z,55.47
2018-02-09T05:21:38.210Z,54.15
2018-02-09T05:22:44.194Z,48.83
2018-02-09T05:23:50.317Z,51.75
2018-02-09T05:24:56.280Z,53.08
2018-02-09T05:26:02.177Z,52.28
2018-02-09T05:27:07.964Z,52.13
2018-02-09T05:28:13.882Z,51.37
2018-02-09T05:29:19.946Z,50.03
2018-02-09T05:30:25.993Z,53.08
2018-02-09T05:31:31.941Z,53.15
2018-02-09T05:32:37.975Z,52.35
2018-02-09T05:33:44.684Z,54.60
2018-02-09T05:34:50.425Z,50.60
2018-02-09T05:35:56.541Z,51.63
2018-02-09T05:37:02.488Z,54.47
2018-02-09T05:38:08.300Z,50.22
2018-02-09T05:39:14.442Z,53.85
2018-02-09T05:40:20.301Z,54.17
2018-02-09T05:41:27.017Z,50.60
2018-02-09T05:42:34.560Z,53.33
2018-02-09T05:43:40.696Z,49.50
2018-02-09T05:44:47.129Z,55.12
2018-02-09T05:45:53.132Z,53.25
2018-02-09T05:46:59.096Z,53.63
2018-02-09T05:48:04.863Z,55.20
2018-02-09T05:49:10.774Z,54.22
2018-02-09T05:50:16.797Z,54.53
2018-02-09T05:51:22.736Z,50.45
2018-02-09T05:52:29.486Z,53.63
2018-02-09T05:53:35.537Z,52.65
2018-02-09T05:54:41.454Z,54.08
2018-02-09T05:55:47.307Z,50.97
2018-02-09T05:56:53.307Z,51.30
2018-02-09T05:57:59.967Z,52.65
2018-02-09T05:59:06.230Z,54.13
2018-02-09T06:00:11.974Z,53.60
2018-02-09T06:01:17.702Z,51.67
2018-02-09T06:02:23.459Z,52.70
2018-02-09T06:03:29.216Z,53.22
2018-02-09T06:04:34.927Z,53.15
2018-02-09T06:05:40.671Z,54.45
2018-02-09T06:06:46.605Z,53.42
2018-02-09T06:07:52.007Z,52.55
2018-02-09T06:08:58.104Z,49.38
2018-02-09T06:10:03.821Z,54.10
2018-02-09T06:11:09.548Z,51.10
2018-02-09T06:12:16.043Z,55.08
2018-02-09T06:13:21.778Z,54.15
2018-02-09T06:14:27.549Z,50.65
2018-02-09T06:15:33.276Z,53.80
2018-02-09T06:16:39.004Z,53.58
2018-02-09T06:17:44.723Z,55.67
2018-02-09T06:18:51.230Z,54.88
2018-02-09T06:19:57.164Z,55.78
2018-02-09T06:21:02.888Z,53.75
2018-02-09T06:22:08.612Z,52.72
2018-02-09T06:23:14.356Z,58.40
2018-02-09T06:24:20.080Z,56.03
2018-02-09T06:25:26.600Z,55.22
2018-02-09T06:26:32.386Z,53.20
2018-02-09T06:27:38.880Z,56.10
2018-02-09T06:28:44.610Z,58.55
2018-02-09T06:29:50.367Z,57.60
2018-02-09T06:30:56.113Z,58.78
2018-02-09T06:32:01.836Z,59.65
2018-02-09T06:33:07.773Z,58.20
2018-02-09T06:34:13.487Z,56.97
2018-02-09T06:35:20.023Z,62.55
2018-02-09T06:36:25.775Z,56.55
2018-02-09T06:37:31.515Z,60.78
2018-02-09T06:38:38.020Z,67.55
2018-02-09T06:39:43.731Z,62.85
2018-02-09T06:40:50.232Z,58.90
2018-02-09T06:41:55.987Z,57.33
2018-02-09T06:43:01.711Z,58.53
2018-02-09T06:44:07.339Z,57.92
2018-02-09T06:45:13.051Z,58.97
2018-02-09T06:46:19.535Z,60.08
2018-02-09T06:47:26.099Z,61.37
2018-02-09T06:48:31.817Z,59.28
2018-02-09T06:49:38.307Z,59.97
2018-02-09T06:50:44.039Z,54.05
2018-02-09T06:51:49.760Z,55.00
2018-02-09T06:52:56.282Z,56.03
2018-02-09T06:54:02.009Z,66.32
2018-02-09T06:55:07.736Z,55.58
2018-02-09T06:56:13.465Z,55.10
2018-02-09T06:57:19.213Z,56.45
2018-02-09T06:58:24.967Z,55.08
2018-02-09T06:59:30.691Z,57.25
2018-02-09T07:00:37.627Z,56.33
2018-02-09T07:01:44.116Z,54.97
2018-02-09T07:02:50.108Z,55.10
2018-02-09T07:03:56.002Z,53.45
2018-02-09T07:05:01.974Z,54.42
2018-02-09T07:06:07.843Z,51.70
2018-02-09T07:07:13.561Z,53.05
2018-02-09T07:08:19.295Z,54.42
2018-02-09T07:09:25.082Z,56.17
2018-02-09T07:10:30.824Z,52.80
2018-02-09T07:11:37.724Z,57.60
2018-02-09T07:13:47.154Z,56.90
2018-02-09T07:14:53.776Z,51.78
2018-02-09T07:15:59.664Z,55.78
2018-02-09T07:17:05.375Z,57.75
2018-02-09T07:18:12.106Z,59.47
2018-02-09T07:19:17.847Z,56.42
2018-02-09T07:20:23.600Z,55.95
2018-02-09T07:21:30.848Z,58.85
2018-02-09T07:22:36.620Z,54.92
2018-02-09T07:23:42.340Z,59.70
2018-02-09T07:24:48.069Z,58.30
2018-02-09T07:25:53.879Z,55.92
2018-02-09T07:26:59.613Z,58.28
2018-02-09T07:28:06.103Z,58.58
2018-02-09T07:29:11.833Z,60.35
2018-02-09T07:30:17.569Z,62.55
2018-02-09T07:31:24.101Z,58.30
2018-02-09T07:32:30.798Z,58.67
2018-02-09T07:33:37.486Z,68.22
2018-02-09T07:34:43.290Z,64.55
2018-02-09T07:35:49.909Z,66.43
2018-02-09T07:36:56.468Z,60.22
2018-02-09T07:38:02.347Z,68.70
2018-02-09T07:39:08.356Z,69.68
2018-02-09T07:40:14.843Z,65.62
2018-02-09T07:41:21.360Z,65.50
2018-02-09T07:42:27.123Z,65.75
2018-02-09T07:43:32.919Z,66.65
2018-02-09T07:44:38.636Z,63.10
2018-02-09T07:45:45.136Z,67.20
2018-02-09T07:46:50.872Z,66.57
2018-02-09T07:47:56.624Z,65.75
2018-02-09T07:49:02.365Z,64.47
2018-02-09T07:50:08.083Z,61.00
2018-02-09T07:51:13.809Z,66.43
2018-02-09T07:52:19.288Z,66.40
2018-02-09T07:53:25.071Z,68.03
2018-02-09T07:54:31.464Z,66.97
2018-02-09T07:55:37.200Z,68.72
2018-02-09T07:56:42.942Z,66.05
2018-02-09T07:57:48.492Z,69.72
2018-02-09T07:58:54.260Z,70.60
2018-02-09T08:00:00.788Z,68.03
2018-02-09T08:01:06.716Z,67.12
2018-02-09T08:02:12.462Z,67.93
2018-02-09T08:03:18.203Z,63.87
2018-02-09T08:04:23.948Z,64.72
2018-02-09T08:05:29.680Z,71.30
2018-02-09T08:06:35.415Z,67.22
2018-02-09T08:07:42.674Z,69.75
2018-02-09T08:08:49.176Z,66.72
2018-02-09T08:09:54.916Z,63.13
2018-02-09T08:11:00.714Z,65.03
2018-02-09T08:12:07.307Z,64.07
2018-02-09T08:13:13.060Z,63.13
2018-02-09T08:14:18.803Z,64.68
2018-02-09T08:15:24.885Z,63.55
2018-02-09T08:16:30.601Z,61.33
2018-02-09T08:17:36.318Z,62.55
2018-02-09T08:18:42.060Z,61.85
2018-02-09T08:19:47.800Z,67.62
2018-02-09T08:20:53.549Z,65.40
2018-02-09T08:21:59.156Z,63.03
2018-02-09T08:23:05.645Z,62.38
2018-02-09T08:24:11.359Z,61.22
2018-02-09T08:25:17.852Z,63.78
2018-02-09T08:26:23.615Z,65.78
2018-02-09T08:27:29.352Z,63.95
2018-02-09T08:28:35.067Z,59.90
2018-02-09T08:29:40.776Z,60.42
2018-02-09T08:30:47.265Z,61.65
2018-02-09T08:31:53.008Z,61.63
2018-02-09T08:32:58.720Z,61.60
2018-02-09T08:34:05.228Z,57.85
2018-02-09T08:35:10.949Z,64.05
2018-02-09T08:36:16.954Z,68.45
2018-02-09T08:37:22.690Z,66.70
2018-02-09T08:38:28.401Z,57.75
2018-02-09T08:39:34.164Z,54.05
2018-02-09T08:40:40.095Z,60.12
2018-02-09T08:41:45.824Z,52.80
2018-02-09T08:42:51.296Z,64.03
2018-02-09T08:43:57.058Z,62.70
2018-02-09T08:45:02.787Z,56.22
2018-02-09T08:46:08.508Z,59.88
2018-02-09T08:47:14.232Z,50.80
2018-02-09T08:48:19.983Z,59.10
2018-02-09T08:49:25.696Z,59.85
2018-02-09T08:50:32.216Z,58.63
2018-02-09T08:51:37.932Z,59.08
2018-02-09T08:52:43.639Z,59.22
2018-02-09T08:53:49.400Z,61.25
2018-02-09T08:54:55.132Z,62.60
2018-02-09T08:56:00.844Z,61.30
2018-02-09T08:57:07.131Z,59.90
2018-02-09T08:58:12.858Z,60.65
2018-02-09T08:59:19.561Z,62.83
2018-02-09T09:00:25.575Z,60.67
2018-02-09T09:01:31.625Z,64.05
2018-02-09T09:02:37.372Z,59.25
2018-02-09T09:03:43.084Z,60.00
2018-02-09T09:04:49.592Z,58.40
2018-02-09T09:05:55.303Z,60.05
2018-02-09T09:07:01.012Z,56.65
2018-02-09T09:08:07.501Z,59.67
2018-02-09T09:09:13.451Z,57.65
2018-02-09T09:10:19.274Z,60.00
2018-02-09T09:11:25.848Z,60.72
2018-02-09T09:12:31.999Z,63.50
2018-02-09T09:13:37.721Z,57.85
2018-02-09T09:14:44.285Z,57.90
2018-02-09T09:15:50.960Z,57.45
2018-02-09T09:16:56.768Z,59.83
2018-02-09T09:18:03.273Z,54.45
2018-02-09T09:19:08.979Z,53.83
2018-02-09T09:20:15.487Z,58.28
2018-02-09T09:21:21.223Z,59.42
2018-02-09T09:22:26.736Z,61.13
2018-02-09T09:23:32.482Z,63.20
2018-02-09T09:24:37.949Z,64.90
2018-02-09T09:25:43.747Z,59.10
2018-02-09T09:26:50.287Z,59.40
2018-02-09T09:27:55.992Z,55.67
2018-02-09T09:29:01.714Z,59.90
2018-02-09T09:30:07.431Z,57.88
2018-02-09T09:31:13.901Z,58.08
2018-02-09T09:32:19.636Z,58.40
2018-02-09T09:33:26.133Z,55.55
2018-02-09T09:34:31.841Z,56.50
2018-02-09T09:35:37.552Z,55.20
2018-02-09T09:36:43.260Z,55.35
2018-02-09T09:37:49.029Z,56.40
2018-02-09T09:38:55.507Z,54.55
2018-02-09T09:40:01.978Z,52.80
2018-02-09T09:41:07.686Z,52.70
2018-02-09T09:42:13.410Z,53.03
2018-02-09T09:43:19.149Z,53.33
2018-02-09T09:44:24.886Z,55.47
2018-02-09T09:45:30.593Z,57.13
2018-02-09T09:46:36.315Z,57.35
2018-02-09T09:47:42.790Z,52.97
2018-02-09T09:48:48.528Z,55.75
2018-02-09T09:49:54.035Z,57.13
2018-02-09T09:51:00.516Z,56.13
2018-02-09T09:52:06.261Z,57.88
2018-02-09T09:53:11.961Z,56.55
2018-02-09T09:54:17.696Z,56.45
2018-02-09T09:55:24.932Z,57.85
2018-02-09T09:56:30.658Z,54.95
2018-02-09T09:57:36.459Z,58.47
2018-02-09T09:58:42.954Z,56.95
2018-02-09T09:59:49.447Z,59.45
2018-02-09T10:00:55.169Z,61.47
2018-02-09T10:02:00.876Z,60.33
2018-02-09T10:03:07.368Z,55.88
2018-02-09T10:04:13.095Z,55.22
2018-02-09T10:05:18.832Z,58.05
2018-02-09T10:06:24.555Z,61.17
2018-02-09T10:07:31.044Z,56.97
2018-02-09T10:08:36.752Z,54.67
2018-02-09T10:09:43.245Z,55.72
2018-02-09T10:10:48.989Z,57.53
2018-02-09T10:11:54.754Z,58.15
2018-02-09T10:13:00.460Z,61.53
2018-02-09T10:14:06.184Z,57.53
2018-02-09T10:15:12.656Z,59.17
2018-02-09T10:16:18.402Z,56.28
2018-02-09T10:17:24.151Z,57.13
2018-02-09T10:18:29.850Z,56.60
2018-02-09T10:19:36.332Z,55.40
2018-02-09T10:20:42.056Z,57.42
2018-02-09T10:21:48.552Z,61.63
2018-02-09T10:22:54.281Z,60.33
2018-02-09T10:24:02.667Z,64.28
2018-02-09T10:25:08.401Z,61.47
2018-02-09T10:26:14.880Z,60.95
2018-02-09T10:27:20.719Z,61.08
2018-02-09T10:28:26.425Z,63.08
2018-02-09T10:29:32.140Z,60.97
2018-02-09T10:30:37.876Z,63.63
2018-02-09T10:31:43.686Z,58.60
2018-02-09T10:32:49.440Z,60.28
2018-02-09T10:33:55.147Z,61.30
2018-02-09T10:35:01.629Z,59.78
2018-02-09T10:36:07.345Z,61.95
2018-02-09T10:37:13.826Z,59.40
2018-02-09T10:38:22.193Z,61.35
2018-02-09T10:39:27.891Z,60.67
2018-02-09T10:40:33.704Z,59.00
2018-02-09T10:41:40.180Z,61.58
2018-02-09T10:42:45.912Z,64.70
2018-02-09T10:43:51.640Z,60.20
2018-02-09T10:44:58.159Z,67.30
2018-02-09T10:46:03.892Z,62.40
2018-02-09T10:47:09.609Z,66.80
2018-02-09T10:48:15.323Z,63.22
2018-02-09T10:49:21.085Z,63.72
2018-02-09T10:50:26.841Z,63.38
2018-02-09T10:51:32.659Z,64.75
2018-02-09T10:52:38.371Z,62.95
2018-02-09T10:53:44.865Z,65.47
2018-02-09T10:54:50.605Z,66.10
2018-02-09T10:55:56.332Z,66.28
2018-02-09T10:57:02.044Z,62.13
2018-02-09T10:58:08.533Z,63.47
2018-02-09T10:59:14.274Z,61.00
2018-02-09T11:01:58.946Z,65.50
2018-02-09T11:03:04.667Z,62.65
2018-02-09T11:04:11.162Z,59.65
2018-02-09T11:05:16.892Z,61.35
2018-02-09T11:06:22.633Z,60.78
2018-02-09T11:07:28.341Z,60.00
2018-02-09T11:08:34.819Z,63.65
2018-02-09T11:09:40.353Z,62.97
2018-02-09T11:10:50.420Z,67.68
2018-02-09T11:12:01.892Z,59.78
2018-02-09T11:13:13.079Z,58.40
2018-02-09T11:14:18.784Z,59.97
2018-02-09T11:15:24.501Z,60.50
2018-02-09T11:16:30.967Z,58.55
2018-02-09T11:17:37.527Z,60.33
2018-02-09T11:18:44.067Z,62.28
2018-02-09T11:19:50.569Z,63.15
2018-02-09T11:20:56.539Z,56.05
2018-02-09T11:22:02.305Z,58.58
2018-02-09T11:23:08.153Z,58.72
2018-02-09T11:24:15.366Z,58.35
2018-02-09T11:25:21.117Z,60.30
2018-02-09T11:26:26.890Z,58.87
2018-02-09T11:27:32.864Z,62.47
2018-02-09T11:28:38.740Z,59.88
2018-02-09T11:29:45.230Z,61.92
2018-02-09T11:30:51.228Z,58.67
2018-02-09T11:31:57.716Z,60.33
2018-02-09T11:33:03.452Z,60.22
2018-02-09T11:34:09.188Z,59.00
2018-02-09T11:35:15.410Z,57.08
2018-02-09T11:36:21.116Z,57.90
2018-02-09T11:37:26.828Z,53.78
2018-02-09T11:38:32.552Z,55.88
2018-02-09T11:39:38.318Z,55.58
2018-02-09T11:40:44.041Z,55.12
2018-02-09T11:41:49.756Z,56.78
2018-02-09T11:42:56.224Z,56.65
2018-02-09T11:44:02.730Z,58.10
2018-02-09T11:45:08.476Z,57.35
2018-02-09T11:46:14.191Z,58.28
2018-02-09T11:47:19.893Z,58.60
2018-02-09T11:48:26.380Z,55.55
2018-02-09T11:49:32.122Z,56.37
2018-02-09T11:50:38.813Z,58.03
2018-02-09T11:51:45.289Z,51.72
2018-02-09T11:52:51.002Z,54.22
2018-02-09T11:53:56.736Z,58.17
2018-02-09T11:55:02.445Z,61.70
2018-02-09T11:56:08.963Z,60.38
2018-02-09T11:57:14.681Z,57.50
2018-02-09T11:58:20.394Z,58.90
2018-02-09T11:59:26.867Z,58.20
2018-02-09T12:00:32.616Z,55.08
2018-02-09T12:01:38.370Z,57.10
2018-02-09T12:02:44.238Z,59.47
2018-02-09T12:03:49.944Z,59.80
2018-02-09T12:04:55.662Z,58.50
2018-02-09T12:06:02.147Z,56.83
2018-02-09T12:07:07.908Z,59.05
2018-02-09T12:08:13.646Z,57.15
2018-02-09T12:09:19.357Z,60.25
2018-02-09T12:10:25.117Z,56.65
2018-02-09T12:11:30.866Z,56.95
2018-02-09T12:12:36.608Z,58.97
2018-02-09T12:13:42.328Z,58.85
2018-02-09T12:14:48.032Z,60.00
2018-02-09T12:15:54.517Z,59.28
2018-02-09T12:17:00.294Z,58.92
2018-02-09T12:18:06.028Z,57.20
2018-02-09T12:19:11.799Z,60.67
2018-02-09T12:20:17.517Z,61.00
2018-02-09T12:21:23.232Z,56.58
2018-02-09T12:22:28.941Z,57.97
2018-02-09T12:23:35.460Z,57.50
2018-02-09T12:24:41.176Z,53.03
2018-02-09T12:25:47.212Z,57.50
2018-02-09T12:26:52.940Z,56.03
2018-02-09T12:27:58.656Z,55.63
2018-02-09T12:29:04.389Z,58.47
2018-02-09T12:30:09.832Z,59.37
2018-02-09T12:31:15.610Z,58.42
2018-02-09T12:32:21.325Z,56.90
2018-02-09T12:33:27.798Z,59.00
2018-02-09T12:34:33.543Z,58.50
2018-02-09T12:35:39.148Z,64.80
2018-02-09T12:36:44.957Z,66.55
2018-02-09T12:37:50.784Z,59.65
2018-02-09T12:38:56.513Z,60.95
2018-02-09T12:40:02.333Z,55.20
2018-02-09T12:41:08.953Z,57.15
2018-02-09T12:42:15.407Z,58.72
2018-02-09T12:43:21.943Z,53.70
2018-02-09T12:44:27.695Z,54.38
2018-02-09T12:45:33.465Z,54.95
2018-02-09T12:46:39.224Z,54.65
2018-02-09T12:47:45.721Z,59.92
2018-02-09T12:48:53.196Z,55.20
2018-02-09T12:49:59.672Z,51.92
2018-02-09T12:51:05.898Z,56.03
2018-02-09T12:52:11.636Z,54.25
2018-02-09T12:53:19.080Z,52.55
2018-02-09T12:54:24.948Z,52.22
2018-02-09T12:55:30.660Z,53.58
2018-02-09T12:56:37.159Z,50.03
2018-02-09T12:57:43.652Z,50.20
2018-02-09T12:58:49.407Z,53.55
2018-02-09T12:59:55.118Z,50.42
2018-02-09T13:01:00.932Z,53.72
2018-02-09T13:02:07.445Z,50.47
2018-02-09T13:03:13.259Z,50.88
2018-02-09T13:04:19.037Z,50.95
2018-02-09T13:05:24.783Z,51.70
2018-02-09T13:06:30.516Z,53.63
2018-02-09T13:07:36.263Z,50.60
2018-02-09T13:08:42.889Z,52.42
2018-02-09T13:09:48.849Z,52.05
2018-02-09T13:10:54.568Z,51.70
2018-02-09T13:12:01.833Z,50.25
2018-02-09T13:13:12.343Z,52.83
2018-02-09T13:14:35.420Z,53.35
2018-02-09T13:15:41.152Z,51.85
2018-02-09T13:16:46.885Z,53.17
2018-02-09T13:17:52.665Z,50.17
2018-02-09T13:18:59.492Z,47.55
2018-02-09T13:20:05.351Z,49.60
2018-02-09T13:21:11.101Z,58.30
2018-02-09T13:24:26.106Z,48.45
2018-02-09T13:25:32.058Z,47.75
2018-02-09T13:26:36.527Z,49.50
2018-02-09T13:27:40.991Z,52.30
2018-02-09T13:28:56.789Z,54.38
2018-02-09T13:30:01.279Z,53.90
2018-02-09T13:31:07.218Z,53.55
2018-02-09T13:32:11.026Z,56.20
2018-02-09T13:33:27.641Z,54.95
2018-02-09T13:34:32.993Z,54.58
2018-02-09T13:35:37.973Z,53.75
2018-02-09T13:38:37.057Z,47.65
2018-02-09T13:39:41.522Z,52.53
2018-02-09T13:40:46.067Z,49.03
2018-02-09T13:41:50.493Z,50.72
2018-02-09T13:42:54.949Z,50.75
2018-02-09T13:43:59.417Z,48.20
2018-02-09T13:45:03.519Z,51.20
2018-02-09T13:46:07.690Z,53.63
2018-02-09T13:47:13.393Z,51.93
2018-02-09T13:48:18.606Z,47.30
2018-02-09T13:49:23.829Z,49.72
2018-02-09T13:50:29.055Z,49.15
2018-02-09T13:51:33.530Z,49.10
2018-02-09T13:52:39.001Z,48.78
2018-02-09T13:53:44.221Z,50.12
2018-02-09T13:54:48.670Z,48.78
2018-02-09T13:55:53.109Z,45.28
2018-02-09T13:56:57.593Z,48.17
2018-02-09T13:58:02.084Z,45.90
2018-02-09T13:59:07.197Z,44.25
2018-02-09T14:00:11.693Z,43.63
2018-02-09T14:01:16.143Z,42.67
2018-02-09T14:02:21.852Z,40.15
2018-02-09T14:03:26.282Z,46.20
2018-02-09T14:04:30.734Z,44.47
2018-02-09T14:05:35.177Z,46.22
2018-02-09T14:06:39.649Z,41.92
2018-02-09T14:07:44.112Z,48.75
2018-02-09T14:08:48.572Z,41.33
2018-02-09T14:09:53.029Z,45.67
2018-02-09T14:10:57.659Z,45.67
2018-02-09T14:12:03.590Z,46.70
2018-02-09T14:13:08.402Z,44.88
2018-02-09T14:14:15.184Z,45.78
2018-02-09T14:15:20.372Z,47.95
2018-02-09T14:16:27.432Z,48.67